Time;durP1;ratioP1;P1;durP2;ratioP2;P2;SDS_P1;SDS_P2;PMS_P1;PMS_P2;Temp;Humidity;BMP_temperature;BMP_pressure;BME280_temperature;BME280_humidity;BME280_pressure;Samples;Min_cycle;Max_cycle;Signal;HPM_P1;HPM_P2
2022/07/16 00:02:37;;;;;;;2.17;1.10;;;;;;;15.43;nan;101013.03;5035846;28;20091;-67
2022/07/16 00:05:03;;;;;;;3.40;1.30;;;;;;;15.32;nan;101003.56;5031622;28;20037;-67
2022/07/16 00:07:29;;;;;;;2.33;0.98;;;;;;;15.25;nan;101002.59;5031322;28;20535;-67
2022/07/16 00:09:54;;;;;;;1.80;1.10;;;;;;;15.28;nan;101013.75;5030402;28;20580;-67
2022/07/16 00:12:19;;;;;;;3.60;1.42;;;;;;;15.37;nan;101013.72;5028765;28;20040;-67
2022/07/16 00:14:44;;;;;;;2.75;1.42;;;;;;;15.43;nan;101007.72;5030578;28;20041;-67
2022/07/16 00:17:10;;;;;;;4.43;1.27;;;;;;;15.39;nan;101017.03;5014910;28;20478;-67
2022/07/16 00:19:35;;;;;;;2.42;1.20;;;;;;;15.31;nan;101007.25;5014938;28;20382;-67
2022/07/16 00:22:00;;;;;;;2.33;1.00;;;;;;;15.32;nan;101006.22;5028018;28;20053;-67
2022/07/16 00:24:26;;;;;;;2.38;1.27;;;;;;;15.31;nan;100999.25;5027203;28;20076;-67
2022/07/16 00:26:52;;;;;;;2.70;1.10;;;;;;;15.33;nan;101001.75;5029268;28;20682;-67
2022/07/16 00:29:18;;;;;;;2.70;1.30;;;;;;;15.34;nan;101012.22;5027677;28;20033;-67
2022/07/16 00:31:45;;;;;;;3.80;1.20;;;;;;;15.33;nan;101009.75;5010995;28;20053;-67
2022/07/16 00:34:12;;;;;;;3.35;1.25;;;;;;;15.32;nan;101011.56;5011672;28;20385;-67
2022/07/16 00:36:39;;;;;;;2.15;1.20;;;;;;;15.27;nan;101008.56;5028376;28;20033;-67
2022/07/16 00:39:05;;;;;;;2.63;1.30;;;;;;;15.25;nan;101002.59;5030191;28;20033;-67
2022/07/16 00:41:31;;;;;;;3.40;1.17;;;;;;;15.21;nan;101009.28;5027041;28;20054;-67
2022/07/16 00:44:01;;;;;;;2.30;1.15;;;;;;;15.18;nan;101001.59;5028905;28;20221;-67
2022/07/16 00:46:28;;;;;;;1.55;1.10;;;;;;;15.14;nan;101013.63;5025931;28;20029;-66
2022/07/16 00:48:54;;;;;;;3.97;1.30;;;;;;;15.08;nan;101001.78;5010307;28;20041;-67
2022/07/16 00:51:22;;;;;;;1.83;1.10;;;;;;;15.04;nan;101003.97;5026631;28;20037;-67
2022/07/16 00:53:47;;;;;;;3.58;1.20;;;;;;;15.07;nan;101000.97;5029614;28;20360;-67
2022/07/16 00:56:14;;;;;;;3.53;1.40;;;;;;;15.05;nan;101000.31;5027983;28;20072;-67
2022/07/16 00:58:41;;;;;;;3.53;1.50;;;;;;;15.03;nan;100999.63;5028306;28;20116;-67
2022/07/16 01:01:07;;;;;;;2.25;1.30;;;;;;;14.99;nan;100992.16;5028589;28;20107;-67
2022/07/16 01:03:33;;;;;;;2.47;1.45;;;;;;;14.94;nan;101000.66;5026496;28;20107;-67
2022/07/16 01:05:59;;;;;;;1.52;1.10;;;;;;;14.93;nan;101003.50;5022622;28;20025;-67
2022/07/16 01:08:26;;;;;;;2.90;1.40;;;;;;;14.96;nan;101011.13;5024179;28;20052;-67
2022/07/16 01:10:53;;;;;;;2.05;1.27;;;;;;;14.93;nan;101009.66;5001085;28;20030;-67
2022/07/16 01:13:18;;;;;;;3.30;1.50;;;;;;;14.91;nan;101014.31;5027454;28;20037;-67
2022/07/16 01:15:44;;;;;;;2.95;1.80;;;;;;;14.90;nan;101009.13;5023123;28;20033;-67
2022/07/16 01:18:09;;;;;;;2.80;1.23;;;;;;;14.90;nan;101011.78;5026894;28;20427;-67
2022/07/16 01:20:35;;;;;;;2.88;1.40;;;;;;;14.87;nan;101010.31;5027418;28;20334;-67
2022/07/16 01:23:01;;;;;;;1.95;1.10;;;;;;;14.83;nan;101009.81;5027337;28;20037;-67
2022/07/16 01:25:27;;;;;;;1.85;1.10;;;;;;;14.79;nan;101010.31;5026352;28;20132;-67
2022/07/16 01:27:53;;;;;;;2.15;1.15;;;;;;;14.76;nan;101003.50;5028130;28;20036;-67
2022/07/16 01:30:18;;;;;;;3.65;1.30;;;;;;;14.72;nan;101002.16;5027228;28;20468;-67
2022/07/16 01:32:43;;;;;;;2.50;1.45;;;;;;;14.65;nan;100996.69;5027286;28;20547;-67
2022/07/16 01:35:09;;;;;;;2.28;1.20;;;;;;;14.68;nan;101000.00;5027470;28;20041;-67
2022/07/16 01:37:34;;;;;;;3.33;1.33;;;;;;;14.70;nan;100995.34;5027866;28;20441;-67
2022/07/16 01:39:59;;;;;;;1.98;1.20;;;;;;;14.69;nan;100993.69;5029704;28;20041;-67
2022/07/16 01:42:25;;;;;;;3.15;1.10;;;;;;;14.67;nan;100996.53;5026046;28;20488;-67
2022/07/16 01:44:51;;;;;;;2.03;1.08;;;;;;;14.69;nan;100999.03;5022262;28;20084;-67
2022/07/16 01:47:16;;;;;;;3.72;1.40;;;;;;;14.68;nan;100995.50;5026848;28;20497;-67
2022/07/16 01:49:41;;;;;;;2.15;1.10;;;;;;;14.64;nan;101004.84;5025916;28;20223;-67
2022/07/16 01:52:13;;;;;;;2.38;1.35;;;;;;;14.61;nan;100998.03;5034525;28;20032;-68
2022/07/16 01:54:45;;;;;;;2.42;1.15;;;;;;;14.61;nan;100998.03;5026818;28;20430;-67
2022/07/16 01:57:10;;;;;;;;;;;;;;;14.60;nan;100996.34;5026314;28;20460;-67
2022/07/16 01:59:37;;;;;;;3.20;1.30;;;;;;;14.55;nan;100998.69;5027668;28;19952;-67
2022/07/16 02:02:02;;;;;;;3.00;1.30;;;;;;;14.53;nan;100991.84;5027686;28;20095;-67
2022/07/16 02:04:27;;;;;;;2.05;1.38;;;;;;;14.51;nan;100996.50;5025977;28;20045;-67
2022/07/16 02:06:53;;;;;;;3.63;1.38;;;;;;;14.53;nan;100991.84;5022451;28;20065;-67
2022/07/16 02:09:18;;;;;;;3.20;1.40;;;;;;;14.62;nan;100990.88;5026077;28;20049;-67
2022/07/16 02:11:43;;;;;;;4.25;1.38;;;;;;;14.65;nan;100985.22;5027535;28;20384;-67
2022/07/16 02:14:09;;;;;;;2.03;1.23;;;;;;;14.63;nan;100992.53;5026376;28;20041;-67
2022/07/16 02:16:34;;;;;;;4.43;1.60;;;;;;;14.63;nan;100993.38;5026928;28;20030;-67
2022/07/16 02:18:59;;;;;;;4.72;1.27;;;;;;;14.60;nan;100990.19;5025051;28;20453;-67
2022/07/16 02:21:25;;;;;;;3.08;1.45;;;;;;;14.56;nan;100991.53;5025882;28;20096;-67
2022/07/16 02:23:50;;;;;;;3.58;1.30;;;;;;;14.54;nan;100989.03;5027273;28;20087;-67
2022/07/16 02:26:15;;;;;;;2.58;1.10;;;;;;;14.54;nan;100989.03;5025455;28;20045;-67
2022/07/16 02:28:40;;;;;;;2.72;1.20;;;;;;;14.56;nan;100991.53;5027910;28;20048;-67
2022/07/16 02:31:06;;;;;;;2.55;1.20;;;;;;;14.52;nan;100991.00;5025673;28;20048;-67
2022/07/16 02:33:31;;;;;;;3.40;1.00;;;;;;;14.49;nan;100991.34;5025909;28;20375;-67
2022/07/16 02:35:56;;;;;;;2.00;1.15;;;;;;;14.45;nan;100990.84;5027686;28;20060;-67
2022/07/16 02:38:22;;;;;;;1.30;1.00;;;;;;;14.36;nan;100993.66;5025553;28;20120;-67
2022/07/16 02:40:47;;;;;;;3.83;1.40;;;;;;;14.27;nan;100987.47;5028690;28;20245;-67
2022/07/16 02:43:13;;;;;;;4.60;1.20;;;;;;;14.24;nan;100993.16;5007723;28;20037;-67
2022/07/16 02:45:41;;;;;;;1.77;1.00;;;;;;;14.18;nan;100989.31;5034833;28;20037;-67
2022/07/16 02:48:07;;;;;;;3.35;1.10;;;;;;;14.10;nan;100986.63;5029115;28;20048;-67
2022/07/16 02:50:33;;;;;;;2.25;1.05;;;;;;;14.04;nan;100989.97;5026988;28;20038;-67
2022/07/16 02:52:58;;;;;;;2.53;1.10;;;;;;;13.97;nan;100996.94;5023888;28;20544;-67
2022/07/16 02:55:24;;;;;;;2.10;1.20;;;;;;;13.95;nan;100993.59;5026053;28;20065;-67
2022/07/16 02:57:49;;;;;;;2.45;1.30;;;;;;;13.93;nan;100988.44;5026669;28;20033;-67
2022/07/16 03:00:16;;;;;;;3.35;1.40;;;;;;;13.93;nan;100995.56;5025066;28;20041;-67
2022/07/16 03:02:42;;;;;;;4.13;1.42;;;;;;;13.90;nan;100990.59;5026269;28;20034;-67
2022/07/16 03:05:09;;;;;;;2.28;1.40;;;;;;;13.88;nan;100990.75;5022702;28;20464;-67
2022/07/16 03:07:35;;;;;;;2.85;1.38;;;;;;;13.91;nan;100998.38;5027506;28;20036;-67
2022/07/16 03:10:01;;;;;;;2.67;1.52;;;;;;;13.91;nan;100997.56;5029213;28;20033;-67
2022/07/16 03:12:26;;;;;;;4.25;1.40;;;;;;;13.92;nan;101001.88;5028694;28;20124;-67
2022/07/16 03:14:51;;;;;;;2.88;1.45;;;;;;;13.94;nan;101006.06;5030778;28;20040;-67
2022/07/16 03:17:17;;;;;;;3.47;1.50;;;;;;;13.95;nan;100999.72;5030245;28;20502;-67
2022/07/16 03:19:42;;;;;;;6.30;1.55;;;;;;;13.92;nan;101012.50;5029549;28;20037;-67
2022/07/16 03:22:08;;;;;;;2.78;1.40;;;;;;;13.90;nan;101011.88;5029097;28;20406;-67
2022/07/16 03:24:34;;;;;;;3.88;1.35;;;;;;;13.85;nan;101007.03;5029165;28;20037;-67
2022/07/16 03:26:59;;;;;;;2.70;1.38;;;;;;;13.85;nan;101014.16;5029520;28;20029;-67
2022/07/16 03:29:24;;;;;;;2.88;1.27;;;;;;;13.83;nan;101016.97;5029788;28;20444;-67
2022/07/16 03:31:50;;;;;;;2.17;1.23;;;;;;;13.80;nan;101007.50;5027993;28;20065;-67
2022/07/16 03:34:16;;;;;;;3.88;1.45;;;;;;;13.79;nan;101011.13;5029439;28;20458;-67
2022/07/16 03:36:41;;;;;;;2.78;1.20;;;;;;;13.79;nan;101013.78;5029941;28;20060;-67
2022/07/16 03:39:06;;;;;;;2.50;1.38;;;;;;;13.77;nan;101012.28;5015509;28;20041;-67
2022/07/16 03:41:37;;;;;;;3.28;1.30;;;;;;;13.70;nan;101020.06;5027360;28;20037;-67
2022/07/16 03:44:04;;;;;;;3.70;1.40;;;;;;;13.69;nan;101017.59;5030104;28;20026;-68
2022/07/16 03:46:29;;;;;;;2.85;1.40;;;;;;;13.66;nan;101018.75;5027531;28;20030;-67
2022/07/16 03:48:56;;;;;;;2.03;1.10;;;;;;;13.64;nan;101026.03;5028115;28;20083;-67
2022/07/16 03:51:22;;;;;;;2.72;1.20;;;;;;;13.61;nan;101026.38;5029307;28;20052;-67
2022/07/16 03:53:48;;;;;;;1.88;1.13;;;;;;;13.58;nan;101024.84;5030028;28;20038;-67
2022/07/16 03:56:13;;;;;;;4.28;1.40;;;;;;;13.56;nan;101026.84;5027970;28;20479;-67
2022/07/16 03:58:40;;;;;;;2.17;1.17;;;;;;;13.55;nan;101022.50;5029077;28;20489;-67
2022/07/16 04:01:06;;;;;;;2.25;1.10;;;;;;;13.56;nan;101018.88;5028961;28;20483;-67
2022/07/16 04:03:32;;;;;;;1.95;1.10;;;;;;;13.57;nan;101030.34;5029567;28;20057;-67
2022/07/16 04:05:57;;;;;;;2.40;1.20;;;;;;;13.51;nan;101026.47;5029280;28;20039;-67
2022/07/16 04:08:22;;;;;;;5.35;1.48;;;;;;;13.56;nan;101026.84;5028768;28;20120;-67
2022/07/16 04:10:48;;;;;;;2.63;1.42;;;;;;;13.56;nan;101026.00;5028887;28;20402;-67
2022/07/16 04:13:13;;;;;;;2.75;1.35;;;;;;;13.54;nan;101030.66;5029889;28;20045;-67
2022/07/16 04:15:38;;;;;;;3.87;1.20;;;;;;;13.55;nan;101027.81;5030258;28;20033;-67
2022/07/16 04:18:04;;;;;;;2.40;1.00;;;;;;;13.58;nan;101024.00;5030174;28;20272;-67
2022/07/16 04:20:29;;;;;;;2.20;0.90;;;;;;;13.53;nan;101026.31;5026627;28;20046;-67
2022/07/16 04:22:54;;;;;;;3.50;1.48;;;;;;;13.53;nan;101035.13;5010965;28;20083;-67
2022/07/16 04:25:20;;;;;;;1.88;1.13;;;;;;;13.53;nan;101028.97;5013144;28;20482;-67
2022/07/16 04:27:47;;;;;;;2.28;1.13;;;;;;;13.53;nan;101032.47;5029173;28;20037;-67
2022/07/16 04:30:13;;;;;;;1.27;0.90;;;;;;;13.58;nan;101029.31;5025734;28;20086;-67
2022/07/16 04:32:40;;;;;;;1.95;0.90;;;;;;;13.59;nan;101023.88;5028237;28;20038;-67
2022/07/16 04:35:06;;;;;;;2.05;0.90;;;;;;;13.62;nan;101021.88;5029898;28;20430;-67
2022/07/16 04:37:32;;;;;;;1.45;0.80;;;;;;;13.66;nan;101028.53;5029412;28;20120;-67
2022/07/16 04:39:57;;;;;;;2.05;1.00;;;;;;;13.73;nan;101024.22;5027071;28;20035;-67
2022/07/16 04:42:23;;;;;;;1.95;0.80;;;;;;;13.77;nan;101017.63;5027476;28;20562;-67
2022/07/16 04:44:48;;;;;;;2.95;0.80;;;;;;;13.79;nan;101027.09;5031057;28;20040;-67
2022/07/16 04:47:13;;;;;;;1.70;0.85;;;;;;;13.79;nan;101032.41;5027959;28;20034;-67
2022/07/16 04:49:39;;;;;;;2.50;0.90;;;;;;;13.81;nan;101034.91;5011539;28;20037;-67
2022/07/16 04:52:04;;;;;;;1.90;0.90;;;;;;;13.83;nan;101037.41;5025184;28;20044;-67
2022/07/16 04:54:30;;;;;;;2.30;0.90;;;;;;;13.86;nan;101024.63;5029880;28;20174;-67
2022/07/16 04:56:55;;;;;;;2.28;1.02;;;;;;;13.90;nan;101023.31;5029092;28;20037;-67
2022/07/16 04:59:21;;;;;;;2.88;1.20;;;;;;;13.97;nan;101031.50;5027368;28;20467;-67
2022/07/16 05:01:46;;;;;;;1.73;1.10;;;;;;;14.00;nan;101034.66;5027143;28;20034;-67
2022/07/16 05:04:11;;;;;;;3.47;1.63;;;;;;;14.04;nan;101040.50;5025664;28;20034;-67
2022/07/16 05:06:37;;;;;;;1.98;1.02;;;;;;;14.06;nan;101030.50;5026831;28;20083;-67
2022/07/16 05:09:02;;;;;;;1.85;1.00;;;;;;;14.12;nan;101039.66;5028417;28;20075;-67
2022/07/16 05:11:29;;;;;;;1.65;0.93;;;;;;;14.22;nan;101043.84;5026834;28;20115;-67
2022/07/16 05:13:54;;;;;;;2.80;1.05;;;;;;;14.27;nan;101040.69;5027486;28;20061;-67
2022/07/16 05:16:20;;;;;;;2.92;1.30;;;;;;;14.38;nan;101044.88;5027127;28;20176;-67
2022/07/16 05:18:46;;;;;;;2.53;1.10;;;;;;;14.51;nan;101049.72;5029060;28;20083;-67
2022/07/16 05:21:11;;;;;;;2.45;1.13;;;;;;;14.67;nan;101049.75;5025283;28;20463;-67
2022/07/16 05:23:37;;;;;;;1.55;1.10;;;;;;;14.76;nan;101050.59;5027399;28;20056;-67
2022/07/16 05:26:02;;;;;;;2.88;1.30;;;;;;;14.89;nan;101052.75;5028763;28;20037;-67
2022/07/16 05:28:28;;;;;;;2.70;1.13;;;;;;;15.07;nan;101064.06;5026034;28;20042;-67
2022/07/16 05:30:53;;;;;;;2.72;1.35;;;;;;;15.16;nan;101063.06;5026825;28;20057;-67
2022/07/16 05:33:18;;;;;;;1.67;1.00;;;;;;;15.26;nan;101070.88;5026788;28;20506;-67
2022/07/16 05:35:44;;;;;;;2.35;1.00;;;;;;;15.35;nan;101072.53;5028489;28;20042;-67
2022/07/16 05:38:09;;;;;;;4.60;1.50;;;;;;;15.52;nan;101073.31;5026810;28;20033;-67
2022/07/16 05:40:34;;;;;;;4.57;1.30;;;;;;;15.71;nan;101075.63;5025394;28;20029;-67
2022/07/16 05:43:00;;;;;;;4.07;1.40;;;;;;;15.91;nan;101077.88;5025523;28;20567;-67
2022/07/16 05:45:25;;;;;;;3.05;1.08;;;;;;;16.11;nan;101083.59;5027067;28;20064;-67
2022/07/16 05:47:50;;;;;;;1.95;1.10;;;;;;;16.34;nan;101089.00;5028103;28;20076;-67
2022/07/16 05:50:15;;;;;;;1.95;1.00;;;;;;;16.73;nan;101088.91;5027056;28;20195;-67
2022/07/16 05:52:41;;;;;;;2.55;1.00;;;;;;;17.25;nan;101081.16;5009450;28;20056;-68
2022/07/16 05:55:07;;;;;;;1.33;0.80;;;;;;;17.82;nan;101083.22;5028839;28;20041;-68
2022/07/16 05:57:32;;;;;;;2.13;0.82;;;;;;;18.47;nan;101084.19;5026031;28;20047;-68
2022/07/16 05:59:58;;;;;;;1.53;0.87;;;;;;;19.39;nan;101082.53;5014549;28;20518;-68
2022/07/16 06:02:23;;;;;;;2.77;0.90;;;;;;;20.20;nan;101087.31;5006259;28;20414;-68
2022/07/16 06:04:48;;;;;;;1.70;0.77;;;;;;;20.90;nan;101094.06;5022395;28;20400;-68
2022/07/16 06:07:13;;;;;;;1.27;0.70;;;;;;;21.14;nan;101097.19;5026569;28;20132;-68
2022/07/16 06:09:39;;;;;;;2.22;1.08;;;;;;;21.36;nan;101090.56;5028051;28;20045;-68
2022/07/16 06:12:04;;;;;;;2.17;0.90;;;;;;;21.59;nan;101092.81;5025962;28;20033;-69
2022/07/16 06:14:30;;;;;;;3.03;0.90;;;;;;;22.31;nan;101094.63;5025636;28;20606;-68
2022/07/16 06:16:55;;;;;;;;;;;;;;;22.34;nan;101094.22;5026269;28;20033;-68
2022/07/16 06:19:20;;;;;;;1.93;0.73;;;;;;;22.67;nan;101100.22;5026545;28;19917;-68
2022/07/16 06:21:45;;;;;;;;;;;;;;;22.95;nan;101100.84;5027267;28;20037;-68
2022/07/16 06:24:10;;;;;;;;;;;;;;;23.16;nan;101099.66;5027315;28;19917;-69
2022/07/16 06:26:35;;;;;;;;;;;;;;;23.51;nan;101103.47;5025855;28;19924;-67
2022/07/16 06:29:01;;;;;;;3.40;1.40;;;;;;;23.78;nan;101110.50;5027300;28;19917;-69
2022/07/16 06:31:26;;;;;;;2.33;1.23;;;;;;;23.77;nan;101106.97;5027040;28;20033;-67
2022/07/16 06:33:51;;;;;;;3.22;1.15;;;;;;;23.81;nan;101107.34;5025852;28;20485;-67
2022/07/16 06:36:17;;;;;;;1.75;0.90;;;;;;;24.06;nan;101113.47;5025945;28;20041;-67
2022/07/16 06:38:42;;;;;;;3.53;1.10;;;;;;;24.44;nan;101116.94;5025846;28;20084;-67
2022/07/16 06:41:08;;;;;;;1.58;0.90;;;;;;;24.48;nan;101116.31;5029319;28;20284;-67
2022/07/16 06:43:33;;;;;;;3.25;1.00;;;;;;;24.58;nan;101115.75;5011819;28;20045;-67
2022/07/16 06:45:58;;;;;;;;;;;;;;;24.74;nan;101114.22;5029621;28;20556;-67
2022/07/16 06:48:23;;;;;;;;;;;;;;;24.88;nan;101120.28;5043268;28;20007;-68
2022/07/16 06:50:49;;;;;;;3.45;1.15;;;;;;;25.12;nan;100991.22;5034450;28;19983;-67
2022/07/16 06:53:14;;;;;;;2.13;1.20;;;;;;;25.37;nan;101021.59;5032007;28;20044;-67
2022/07/16 06:55:40;;;;;;;2.72;1.10;;;;;;;25.83;nan;101021.69;5029633;28;20038;-67
2022/07/16 06:58:05;;;;;;;3.38;1.33;;;;;;;26.09;nan;101065.59;5031734;28;20095;-68
2022/07/16 07:00:30;;;;;;;3.03;1.40;;;;;;;26.17;nan;101025.38;5030082;28;20037;-68
2022/07/16 07:02:56;;;;;;;4.05;1.40;;;;;;;26.17;nan;101030.81;5030856;28;20136;-67
2022/07/16 07:05:21;;;;;;;4.03;1.40;;;;;;;26.22;nan;101030.88;5030684;28;20056;-68
2022/07/16 07:07:47;;;;;;;3.17;1.10;;;;;;;26.35;nan;101027.03;5030313;28;20025;-68
2022/07/16 07:10:12;;;;;;;2.20;1.20;;;;;;;;;;5030707;28;20061;-68
2022/07/16 07:12:37;;;;;;;2.72;1.20;;;;;;;26.25;nan;101022.25;5028953;28;20033;-68
2022/07/16 07:15:03;;;;;;;2.67;1.10;;;;;;;;;;5030071;28;20029;-67
2022/07/16 07:17:28;;;;;;;2.80;0.90;;;;;;;26.53;nan;101015.16;5027323;28;20292;-68
2022/07/16 07:19:54;;;;;;;2.63;1.13;;;;;;;26.66;nan;101005.88;5030475;28;20036;-68
2022/07/16 07:22:19;;;;;;;2.65;1.20;;;;;;;26.53;nan;101006.16;5028215;28;20293;-68
2022/07/16 07:24:44;;;;;;;2.20;1.00;;;;;;;;;;5029896;28;20042;-68
2022/07/16 07:27:09;;;;;;;2.40;0.80;;;;;;;;;;5029885;28;20649;-68
2022/07/16 07:29:34;;;;;;;2.03;0.80;;;;;;;;;;5028577;28;20065;-68
2022/07/16 07:32:00;;;;;;;1.80;0.97;;;;;;;27.45;nan;101011.09;5029547;28;20520;-68
2022/07/16 07:34:25;;;;;;;2.63;1.00;;;;;;;27.57;nan;101000.09;5030228;28;20049;-68
2022/07/16 07:36:51;;;;;;;2.45;0.88;;;;;;;27.57;nan;101005.53;5008936;28;20044;-68
2022/07/16 07:39:16;;;;;;;3.35;1.27;;;;;;;;;;5030425;28;20040;-68
2022/07/16 07:41:41;;;;;;;2.30;0.80;;;;;;;27.98;nan;100999.75;5035196;28;20124;-68
2022/07/16 07:44:07;;;;;;;2.13;0.88;;;;;;;;;;5030150;28;20033;-69
2022/07/16 07:46:32;;;;;;;2.20;1.00;;;;;;;28.31;nan;101010.41;5029353;28;20045;-68
2022/07/16 07:48:57;;;;;;;3.65;1.00;;;;;;;28.85;nan;101004.06;5029698;28;20055;-68
2022/07/16 07:51:23;;;;;;;1.80;0.90;;;;;;;29.24;nan;101028.28;5029013;28;20029;-68
2022/07/16 07:53:49;;;;;;;2.42;0.98;;;;;;;29.67;nan;101123.63;5031182;28;20340;-68
2022/07/16 07:56:14;;;;;;;1.48;0.70;;;;;;;29.98;nan;101119.13;5027607;28;20038;-69
2022/07/16 07:58:39;;;;;;;1.90;0.80;;;;;;;30.23;nan;101113.75;5028989;28;20136;-68
2022/07/16 08:01:05;;;;;;;2.03;1.00;;;;;;;30.18;nan;101112.91;5012780;28;20429;-69
2022/07/16 08:03:30;;;;;;;2.10;0.80;;;;;;;30.04;nan;101118.06;5029244;28;20276;-68
2022/07/16 08:05:56;;;;;;;1.92;0.57;;;;;;;30.30;nan;101110.78;5029243;28;20075;-68
2022/07/16 08:08:21;;;;;;;1.33;0.70;;;;;;;30.72;nan;101114.38;5031607;28;20049;-68
2022/07/16 08:10:46;;;;;;;1.40;0.70;;;;;;;30.53;nan;101104.00;5032104;28;20071;-68
2022/07/16 08:13:12;;;;;;;1.88;0.70;;;;;;;30.54;nan;101105.66;5031370;28;20030;-68
2022/07/16 08:15:37;;;;;;;2.08;0.80;;;;;;;30.77;nan;101108.91;5031774;28;20039;-68
2022/07/16 08:18:02;;;;;;;1.77;0.70;;;;;;;31.03;nan;101107.03;5037382;28;20108;-68
2022/07/16 08:20:28;;;;;;;3.08;0.85;;;;;;;31.19;nan;101107.84;5017398;28;20063;-69
2022/07/16 08:22:53;;;;;;;1.83;0.80;;;;;;;31.18;nan;101104.28;5033566;28;20044;-69
2022/07/16 08:28:02;;;;;;;1.77;0.80;;;;;;;31.50;nan;101106.69;5031467;28;20314;-69
2022/07/16 08:30:28;;;;;;;1.35;0.70;;;;;;;31.92;nan;101116.38;5030940;28;20029;-68
2022/07/16 08:32:53;;;;;;;1.30;0.70;;;;;;;32.27;nan;101109.09;5030916;28;20032;-68
2022/07/16 08:35:19;;;;;;;1.45;0.80;;;;;;;32.42;nan;101107.34;5028929;28;20112;-69
2022/07/16 08:37:46;;;;;;;2.13;0.90;;;;;;;32.48;nan;101111.69;5032313;28;20092;-68
2022/07/16 08:40:16;;;;;;;1.77;0.73;;;;;;;32.40;nan;101109.56;5031668;28;20033;-69
2022/07/16 08:42:41;;;;;;;1.33;0.77;;;;;;;32.52;nan;101113.59;5034092;28;20029;-69
2022/07/16 08:45:09;;;;;;;1.98;0.80;;;;;;;33.04;nan;101103.06;5050533;28;20409;-69
2022/07/16 08:47:35;;;;;;;3.03;0.88;;;;;;;33.01;nan;101106.34;5050824;28;20036;-68
2022/07/16 08:50:02;;;;;;;2.97;1.05;;;;;;;32.87;nan;101100.75;5031198;28;20460;-69
2022/07/16 08:52:29;;;;;;;2.45;0.90;;;;;;;32.65;nan;101097.63;5027602;28;20405;-69
2022/07/16 08:54:55;;;;;;;2.47;0.75;;;;;;;32.48;nan;101098.00;5028340;28;20029;-68
2022/07/16 08:57:22;;;;;;;3.40;0.90;;;;;;;32.28;nan;101099.78;5028625;28;20037;-68
2022/07/16 08:59:48;;;;;;;1.58;0.90;;;;;;;32.48;nan;101106.22;5026375;28;20525;-68
2022/07/16 09:02:14;;;;;;;2.47;0.80;;;;;;;32.81;nan;101098.34;5026932;28;20042;-69
2022/07/16 09:04:41;;;;;;;1.63;0.70;;;;;;;33.76;nan;101102.31;5027866;28;20060;-69
2022/07/16 09:07:07;;;;;;;2.45;0.90;;;;;;;34.21;nan;101105.56;5026175;28;20037;-68
2022/07/16 09:09:32;;;;;;;2.30;0.90;;;;;;;34.15;nan;101095.75;5026669;28;20042;-68
2022/07/16 09:11:57;;;;;;;1.80;0.88;;;;;;;34.37;nan;101092.41;5012151;28;20330;-68
2022/07/16 09:14:23;;;;;;;2.10;0.98;;;;;;;34.75;nan;101095.94;5026525;28;20037;-69
2022/07/16 09:16:51;;;;;;;3.15;0.80;;;;;;;34.83;nan;101092.50;5029338;28;20255;-68
2022/07/16 09:19:22;;;;;;;1.48;0.52;;;;;;;35.52;nan;101094.53;5027112;28;20037;-69
2022/07/16 09:22:08;;;;;;;2.13;0.80;;;;;;;36.27;nan;101095.16;5026267;28;20038;-69
2022/07/16 09:24:45;;;;;;;1.92;0.90;;;;;;;36.03;nan;101104.47;5025955;28;20045;-66
2022/07/16 09:27:17;;;;;;;2.58;0.77;;;;;;;36.11;nan;101095.53;5030844;28;20090;-66
2022/07/16 09:29:46;;;;;;;1.40;0.73;;;;;;;36.42;nan;101096.72;5028645;28;20128;-68
2022/07/16 09:32:13;;;;;;;1.17;0.60;;;;;;;36.85;nan;101099.81;5028325;28;20029;-68
2022/07/16 09:34:38;;;;;;;2.17;0.90;;;;;;;36.65;nan;101098.38;5029706;28;20053;-68
2022/07/16 09:37:06;;;;;;;2.50;1.00;;;;;;;36.64;nan;101098.66;5029214;28;20037;-67
2022/07/16 09:39:33;;;;;;;1.63;0.75;;;;;;;36.99;nan;101099.69;5029915;28;20272;-68
2022/07/16 09:41:58;;;;;;;2.88;0.82;;;;;;;36.88;nan;101101.13;5023539;28;20030;-68
2022/07/16 09:44:26;;;;;;;1.73;0.90;;;;;;;37.06;nan;101096.53;5029805;28;20034;-68
2022/07/16 09:47:06;;;;;;;2.20;0.73;;;;;;;36.85;nan;101094.28;5034267;28;20049;-68
2022/07/16 09:49:36;;;;;;;2.33;0.90;;;;;;;36.21;nan;101090.88;5026604;28;20065;-68
2022/07/16 09:52:06;;;;;;;2.47;0.90;;;;;;;36.78;nan;101094.75;5007560;28;20025;-69
2022/07/16 09:54:36;;;;;;;2.35;0.70;;;;;;;37.55;nan;101100.97;5024383;28;20036;-68
2022/07/16 09:57:15;;;;;;;1.33;0.82;;;;;;;38.08;nan;101099.13;5031130;28;20064;-68
2022/07/16 09:59:41;;;;;;;2.35;0.90;;;;;;;37.79;nan;101096.94;5025931;28;20449;-68
2022/07/16 10:02:07;;;;;;;1.55;0.80;;;;;;;37.77;nan;101096.47;5013371;28;20041;-68
2022/07/16 10:04:32;;;;;;;0.98;0.70;;;;;;;37.50;nan;101086.47;5025571;28;20037;-68
2022/07/16 10:06:58;;;;;;;1.95;0.90;;;;;;;37.88;nan;101102.47;5028701;28;20469;-68
2022/07/16 10:09:24;;;;;;;1.73;0.80;;;;;;;37.65;nan;101099.03;5025140;28;20073;-68
2022/07/16 10:11:51;;;;;;;2.78;1.08;;;;;;;36.77;nan;101095.03;5028337;28;20045;-68
2022/07/16 10:14:17;;;;;;;1.95;0.77;;;;;;;37.10;nan;101094.75;5026404;28;20037;-68
2022/07/16 10:16:45;;;;;;;1.40;0.73;;;;;;;37.31;nan;101098.59;5026765;28;20044;-68
2022/07/16 10:19:12;;;;;;;2.75;0.90;;;;;;;37.20;nan;101097.22;5025284;28;20328;-68
2022/07/16 10:21:38;;;;;;;2.13;0.80;;;;;;;37.76;nan;101098.41;5008342;28;20048;-68
2022/07/16 10:24:15;;;;;;;2.38;1.05;;;;;;;38.65;nan;101103.66;5026266;28;20406;-68
2022/07/16 10:26:41;;;;;;;2.45;1.10;;;;;;;38.03;nan;101096.53;5025510;28;20029;-68
2022/07/16 10:29:07;;;;;;;1.63;0.80;;;;;;;37.27;nan;101089.31;5025939;28;20478;-68
2022/07/16 10:31:37;;;;;;;1.52;0.70;;;;;;;36.23;nan;101094.13;5025816;28;20129;-68
2022/07/16 10:34:15;;;;;;;2.53;0.88;;;;;;;36.05;nan;101095.91;5025787;28;20029;-67
2022/07/16 10:36:46;;;;;;;2.67;1.00;;;;;;;36.72;nan;101092.41;5025761;28;20037;-68
2022/07/16 10:39:15;;;;;;;1.90;1.10;;;;;;;37.35;nan;101091.31;5028197;28;20073;-67
2022/07/16 10:41:54;;;;;;;2.25;0.88;;;;;;;36.97;nan;101094.50;5024776;28;20152;-68
2022/07/16 10:44:25;;;;;;;2.30;1.02;;;;;;;36.68;nan;101097.72;5025313;28;20038;-67
2022/07/16 10:46:50;;;;;;;;;;;;;;;36.31;nan;101098.91;5025965;28;20049;-67
2022/07/16 10:49:15;;;;;;;2.37;0.90;;;;;;;35.36;nan;101096.78;5027435;28;20294;-67
2022/07/16 10:52:00;;;;;;;2.10;1.00;;;;;;;34.48;nan;101086.44;5024604;28;20354;-67
2022/07/16 10:54:37;;;;;;;2.33;0.98;;;;;;;34.05;nan;101099.44;5029373;28;20046;-67
2022/07/16 10:57:07;;;;;;;1.98;0.95;;;;;;;35.88;nan;101088.31;5023180;28;20045;-67
2022/07/16 10:59:36;;;;;;;1.55;1.00;;;;;;;37.17;nan;101092.34;5024342;28;20030;-67
2022/07/16 11:02:05;;;;;;;1.95;1.00;;;;;;;37.75;nan;101095.97;5026348;28;20136;-67
2022/07/16 11:04:39;;;;;;;2.75;0.90;;;;;;;37.81;nan;101109.28;5024524;28;20056;-67
2022/07/16 11:07:09;;;;;;;1.58;1.00;;;;;;;38.55;nan;101109.53;5026930;28;20045;-67
2022/07/16 11:09:38;;;;;;;2.47;0.87;;;;;;;39.55;nan;101104.69;5023932;28;20045;-67
2022/07/16 11:12:16;;;;;;;2.25;0.90;;;;;;;39.82;nan;101100.63;5025392;28;20068;-68
2022/07/16 11:14:44;;;;;;;2.17;0.85;;;;;;;39.99;nan;101092.16;5010322;28;20041;-67
2022/07/16 11:17:10;;;;;;;3.50;1.20;;;;;;;40.11;nan;101096.97;5026906;28;20088;-67
2022/07/16 11:19:37;;;;;;;2.40;1.00;;;;;;;40.62;nan;101094.91;5008700;28;20041;-67
2022/07/16 11:22:02;;;;;;;2.65;0.95;;;;;;;40.55;nan;101087.13;5024435;28;20038;-67
2022/07/16 11:24:29;;;;;;;3.92;0.98;;;;;;;38.92;nan;101090.59;5006868;28;20193;-67
2022/07/16 11:26:57;;;;;;;1.90;1.00;;;;;;;37.13;nan;101088.59;5027092;28;20038;-67
2022/07/16 11:29:24;;;;;;;2.13;0.90;;;;;;;36.18;nan;101088.75;5025995;28;20117;-68
2022/07/16 11:31:50;;;;;;;2.70;1.00;;;;;;;37.32;nan;101085.59;5027966;28;20523;-68
2022/07/16 11:34:22;;;;;;;1.92;1.00;;;;;;;38.40;nan;101092.28;5029410;28;20033;-69
2022/07/16 11:36:50;;;;;;;2.00;1.00;;;;;;;39.16;nan;101101.09;5028857;28;20505;-66
2022/07/16 11:39:21;;;;;;;2.05;1.15;;;;;;;37.02;nan;101089.97;5032222;28;20232;-68
2022/07/16 11:41:53;;;;;;;2.45;1.00;;;;;;;35.03;nan;101093.25;5030125;28;20142;-67
2022/07/16 11:44:24;;;;;;;2.45;1.10;;;;;;;33.22;nan;101101.50;5048255;28;20041;-68
2022/07/16 11:47:12;;;;;;;2.38;1.10;;;;;;;33.38;nan;101093.94;5047776;28;20025;-68